Аэропорт: Стригино. Нижний Новгород

ICAO: UWGG

METAR:
2018/09/19 07:30
UWGG 190730Z 31005MPS 9999 FEW030 13/07 Q1012 R36R/090070 NOSIG
METAR:
2018/09/19 06:24
TAF UWGG 190450Z 1906/2006 28006G13MPS 9999 SCT030 TX12/1912Z TN07/2003Z